Time;durP1;ratioP1;P1;durP2;ratioP2;P2;SDS_P1;SDS_P2;PMS_P1;PMS_P2;Temp;Humidity;BMP_temperature;BMP_pressure;BME280_temperature;BME280_humidity;BME280_pressure;Samples;Min_cycle;Max_cycle;Signal;HPM_P1;HPM_P2
2023/04/03 00:01:21;;;;;;;2.70;2.42;;;;;;;;;;10286955;28;20103;-67
2023/04/03 00:06:19;;;;;;;2.53;2.33;;;;;;;;;;10289451;28;20071;-67
2023/04/03 00:11:19;;;;;;;3.42;2.70;;;;;;;;;;10287213;28;20077;-67
2023/04/03 00:16:17;;;;;;;3.75;2.72;;;;;;;;;;10289158;28;20082;-67
2023/04/03 00:21:16;;;;;;;4.40;2.65;;;;;;;;;;10294203;28;20484;-67
2023/04/03 00:26:14;;;;;;;2.75;2.55;;;;;;;;;;10296716;28;20465;-65
2023/04/03 00:31:16;;;;;;;2.65;2.40;;;;;;;;;;10295219;28;20458;-67
2023/04/03 00:36:14;;;;;;;2.20;2.00;;;;;;;;;;10304981;28;20535;-67
2023/04/03 00:41:13;;;;;;;2.38;2.17;;;;;;;;;;10299850;28;20053;-67
2023/04/03 00:46:11;;;;;;;3.88;2.28;;;;;;;;;;10294427;28;20060;-67
2023/04/03 00:51:13;;;;;;;2.65;2.45;;;;;;;;;;10292904;28;20053;-67
2023/04/03 00:56:13;;;;;;;2.63;2.40;;;;;;;;;;10289545;28;20091;-67
2023/04/03 01:01:13;;;;;;;2.90;2.60;;;;;;;;;;10301505;28;20080;-67
2023/04/03 01:06:14;;;;;;;3.47;3.00;;;;;;;;;;10292729;28;20075;-67
2023/04/03 01:11:12;;;;;;;6.40;4.30;;;;;;;;;;10292924;28;20556;-68
2023/04/03 01:16:11;;;;;;;5.22;4.05;;;;;;;;;;10293510;28;20060;-67
2023/04/03 01:21:30;;;;;;;5.28;3.38;;;;;;;;;;10292195;28;20069;-67
2023/04/03 01:26:30;;;;;;;2.80;2.50;;;;;;;;;;10285461;28;20064;-66
2023/04/03 01:31:31;;;;;;;3.90;3.60;;;;;;;;;;10288858;28;20060;-66
2023/04/03 01:36:32;;;;;;;5.88;4.97;;;;;;;;;;10293557;28;20079;-67
2023/04/03 01:41:30;;;;;;;25.30;19.38;;;;;;;;;;10301741;28;20076;-67
2023/04/03 01:46:39;;;;;;;45.85;33.22;;;;;;;;;;10290749;28;20093;-68
2023/04/03 01:51:39;;;;;;;5.53;4.47;;;;;;;;;;10292543;28;20453;-68
2023/04/03 01:56:38;;;;;;;10.05;7.75;;;;;;;;;;10291444;28;20072;-67
2023/04/03 02:01:38;;;;;;;5.13;4.10;;;;;;;;;;10292893;28;20045;-68
2023/04/03 02:06:36;;;;;;;8.77;6.68;;;;;;;;;;10294304;28;20422;-67
2023/04/03 02:11:36;;;;;;;7.35;6.63;;;;;;;;;;10295116;28;20084;-67
2023/04/03 02:16:34;;;;;;;5.88;5.10;;;;;;;;;;10294923;28;20099;-67
2023/04/03 02:21:32;;;;;;;5.15;4.15;;;;;;;;;;10288476;28;20533;-66
2023/04/03 02:26:31;;;;;;;5.13;4.45;;;;;;;;;;10290151;28;20101;-67
2023/04/03 02:31:30;;;;;;;4.43;4.03;;;;;;;;;;10292841;28;20320;-67
2023/04/03 02:36:30;;;;;;;4.45;3.97;;;;;;;;;;10295833;28;20084;-67
2023/04/03 02:41:35;;;;;;;3.00;2.70;;;;;;;;;;10291827;28;20044;-68
2023/04/03 02:46:38;;;;;;;5.82;5.05;;;;;;;;;;10298620;28;20474;-67
2023/04/03 02:51:37;;;;;;;3.60;3.20;;;;;;;;;;10290953;28;20094;-67
2023/04/03 02:56:36;;;;;;;3.10;2.80;;;;;;;;;;10295506;28;20458;-68
2023/04/03 03:01:35;;;;;;;3.05;2.83;;;;;;;;;;10292065;28;20072;-68
2023/04/03 03:06:35;;;;;;;6.53;3.17;;;;;;;;;;10298767;28;20077;-67
2023/04/03 03:11:34;;;;;;;4.57;3.13;;;;;;;;;;10284936;28;20075;-67
2023/04/03 03:16:33;;;;;;;4.50;4.07;;;;;;;;;;10288092;28;20068;-68
2023/04/03 03:21:31;;;;;;;4.85;3.38;;;;;;;;;;10296779;28;20075;-67
2023/04/03 03:26:31;;;;;;;6.45;5.72;;;;;;;;;;10289183;28;20060;-67
2023/04/03 03:31:29;;;;;;;9.13;4.40;;;;;;;;;;10286581;28;20059;-67
2023/04/03 03:36:28;;;;;;;5.45;4.95;;;;;;;;;;10294295;28;20072;-67
2023/04/03 03:41:26;;;;;;;3.42;3.13;;;;;;;;;;10287256;28;20072;-66
2023/04/03 03:46:25;;;;;;;3.38;3.08;;;;;;;;;;10290940;28;20091;-68
2023/04/03 03:51:24;;;;;;;3.08;2.70;;;;;;;;;;10288681;28;20064;-67
2023/04/03 03:56:23;;;;;;;3.88;3.20;;;;;;;;;;10287293;28;20071;-68
2023/04/03 04:01:22;;;;;;;3.10;2.80;;;;;;;;;;10291477;28;20510;-69
2023/04/03 04:06:22;;;;;;;6.63;3.45;;;;;;;;;;10287873;28;20083;-70
2023/04/03 04:11:22;;;;;;;24.30;18.00;;;;;;;;;;10290935;28;20482;-69
2023/04/03 04:16:22;;;;;;;13.98;9.55;;;;;;;;;;10293592;28;20095;-68
2023/04/03 04:21:21;;;;;;;24.30;16.08;;;;;;;;;;10293074;28;20069;-68
2023/04/03 04:26:22;;;;;;;18.60;10.88;;;;;;;;;;10287228;28;20099;-70
2023/04/03 04:31:20;;;;;;;11.75;7.43;;;;;;;;;;10290254;28;20079;-70
2023/04/03 04:36:20;;;;;;;12.32;10.05;;;;;;;;;;10282939;28;20072;-70
2023/04/03 04:41:22;;;;;;;10.93;5.70;;;;;;;;;;10281528;28;20481;-68
2023/04/03 04:46:22;;;;;;;9.52;4.90;;;;;;;;;;10281844;28;20089;-68
2023/04/03 04:51:26;;;;;;;9.70;3.90;;;;;;;;;;10286837;28;20084;-68
2023/04/03 04:56:28;;;;;;;7.53;4.45;;;;;;;;;;10283782;28;20075;-67
2023/04/03 05:01:28;;;;;;;3.90;3.50;;;;;;;;;;10283695;28;20068;-67
2023/04/03 05:06:34;;;;;;;3.38;3.08;;;;;;;;;;10289176;28;20095;-68
2023/04/03 05:11:39;;;;;;;4.38;2.85;;;;;;;;;;10295998;28;20143;-67
2023/04/03 05:16:39;;;;;;;4.78;3.72;;;;;;;;;;10296870;28;20076;-68
2023/04/03 05:21:38;;;;;;;6.18;3.08;;;;;;;;;;10287579;28;20065;-68
2023/04/03 05:26:42;;;;;;;4.47;3.70;;;;;;;;;;10286776;28;20537;-67
2023/04/03 05:31:42;;;;;;;3.45;3.10;;;;;;;;;;10296571;28;20080;-67
2023/04/03 05:36:42;;;;;;;5.22;3.55;;;;;;;;;;10289633;28;20080;-68
2023/04/03 05:41:43;;;;;;;3.55;3.25;;;;;;;;;;10290411;28;20095;-67
2023/04/03 05:46:42;;;;;;;4.40;3.58;;;;;;;;;;10295748;28;20469;-67
2023/04/03 05:51:41;;;;;;;4.95;4.28;;;;;;;;;;10298362;28;20040;-68
2023/04/03 05:57:02;;;;;;;28.45;14.93;;;;;;;;;;10287828;28;20085;-68
2023/04/03 06:02:02;;;;;;;26.27;14.13;;;;;;;;;;10294050;28;20075;-68
2023/04/03 06:07:02;;;;;;;13.50;9.52;;;;;;;;;;10297946;28;20095;-69
2023/04/03 06:12:02;;;;;;;6.68;3.40;;;;;;;;;;10290982;28;20079;-67
2023/04/03 06:17:01;;;;;;;6.30;3.83;;;;;;;;;;10297906;28;20084;-68
2023/04/03 06:22:00;;;;;;;4.82;3.55;;;;;;;;;;10291459;28;20069;-67
2023/04/03 06:26:59;;;;;;;4.10;3.38;;;;;;;;;;10297164;28;20037;-67
2023/04/03 06:31:59;;;;;;;15.13;7.72;;;;;;;;;;10293690;28;20511;-67
2023/04/03 06:36:57;;;;;;;6.43;5.22;;;;;;;;;;10295698;28;20497;-66
2023/04/03 06:41:56;;;;;;;6.30;4.03;;;;;;;;;;10291828;28;20084;-68
2023/04/03 06:47:10;;;;;;;8.60;6.68;;;;;;;;;;10297089;28;20040;-67
2023/04/03 06:52:09;;;;;;;7.55;6.13;;;;;;;;;;10290062;28;20076;-68
2023/04/03 06:57:08;;;;;;;5.20;4.70;;;;;;;;;;10291985;28;20088;-67
2023/04/03 07:02:06;;;;;;;4.55;4.15;;;;;;;;;;10290021;28;20106;-69
2023/04/03 07:07:07;;;;;;;7.85;4.00;;;;;;;;;;10289788;28;20099;-68
2023/04/03 07:12:05;;;;;;;5.47;4.03;;;;;;;;;;10290505;28;20763;-68
2023/04/03 07:17:04;;;;;;;3.65;3.35;;;;;;;;;;10287597;28;20065;-67
2023/04/03 07:22:06;;;;;;;5.15;4.07;;;;;;;;;;10288049;28;20491;-67
2023/04/03 07:27:05;;;;;;;5.97;3.35;;;;;;;;;;10287308;28;20461;-67
2023/04/03 07:32:03;;;;;;;5.13;4.45;;;;;;;;;;10288079;28;20068;-68
2023/04/03 07:37:02;;;;;;;7.15;4.05;;;;;;;;;;10292234;28;20068;-68
2023/04/03 07:42:01;;;;;;;5.40;4.50;;;;;;;;;;10292296;28;20091;-67
2023/04/03 07:47:00;;;;;;;9.93;4.70;;;;;;;;;;10287786;28;20144;-68
2023/04/03 07:51:58;;;;;;;9.55;6.43;;;;;;;;;;10288870;28;20069;-68
2023/04/03 07:56:57;;;;;;;9.20;6.13;;;;;;;;;;10289644;28;20087;-66
2023/04/03 08:01:56;;;;;;;10.73;5.28;;;;;;;;;;10288296;28;20465;-69
2023/04/03 08:06:54;;;;;;;10.65;5.60;;;;;;;;;;10287772;28;20837;-69
2023/04/03 08:11:53;;;;;;;14.30;8.07;;;;;;;;;;10289676;28;20491;-68
2023/04/03 08:16:51;;;;;;;11.38;4.63;;;;;;;;;;10291450;28;20477;-68
2023/04/03 08:21:51;;;;;;;6.28;4.95;;;;;;;;;;10286899;28;20485;-68
2023/04/03 08:26:49;;;;;;;15.23;8.38;;;;;;;;;;10287898;28;20081;-68
2023/04/03 08:31:49;;;;;;;10.43;5.40;;;;;;;;;;10288135;28;20048;-68
2023/04/03 08:36:47;;;;;;;7.78;6.30;;;;;;;;;;10287237;28;20079;-68
2023/04/03 08:41:47;;;;;;;9.15;7.28;;;;;;;;;;10293515;28;20083;-68
2023/04/03 08:46:56;;;;;;;13.90;6.18;;;;;;;;;;10295544;28;20079;-69
2023/04/03 08:51:57;;;;;;;8.98;6.45;;;;;;;;;;10297230;28;20076;-68
2023/04/03 08:57:00;;;;;;;4.32;3.92;;;;;;;;;;10293323;28;20076;-69
2023/04/03 09:01:59;;;;;;;5.53;4.95;;;;;;;;;;10296565;28;20391;-69
2023/04/03 09:07:04;;;;;;;33.28;24.15;;;;;;;;;;10294342;28;20151;-68
2023/04/03 09:12:05;;;;;;;;;;;;;;;;;;10295950;28;20502;-68
2023/04/03 09:17:05;;;;;;;9.00;4.95;;;;;;;;;;10291151;28;19967;-68
2023/04/03 09:22:12;;;;;;;7.18;4.32;;;;;;;;;;10294821;28;20068;-68
2023/04/03 09:27:11;;;;;;;13.13;8.02;;;;;;;;;;10293659;28;20080;-68
2023/04/03 09:32:22;;;;;;;8.10;5.97;;;;;;;;;;10290946;28;20072;-70
2023/04/03 09:37:41;;;;;;;4.95;4.47;;;;;;;;;;10290273;28;20068;-70
2023/04/03 09:42:41;;;;;;;6.88;5.22;;;;;;;;;;10290604;28;20458;-70
2023/04/03 09:47:47;;;;;;;8.73;4.32;;;;;;;;;;10293356;28;20072;-68
2023/04/03 09:52:46;;;;;;;4.90;3.88;;;;;;;;;;10291624;28;20100;-68
2023/04/03 09:57:44;;;;;;;8.95;4.65;;;;;;;;;;10294698;28;20080;-68
2023/04/03 10:02:42;;;;;;;7.43;3.55;;;;;;;;;;10292263;28;20485;-68
2023/04/03 10:07:42;;;;;;;4.00;3.40;;;;;;;;;;10293951;28;20102;-69
2023/04/03 10:12:45;;;;;;;4.55;3.20;;;;;;;;;;10295039;28;20088;-68
2023/04/03 10:17:50;;;;;;;4.53;4.07;;;;;;;;;;10292564;28;20622;-68
2023/04/03 10:22:56;;;;;;;3.25;3.03;;;;;;;;;;10294197;28;20071;-68
2023/04/03 10:27:57;;;;;;;5.55;3.08;;;;;;;;;;10292499;28;20065;-68
2023/04/03 10:32:59;;;;;;;4.13;3.47;;;;;;;;;;10289147;28;20176;-68
2023/04/03 10:38:04;;;;;;;3.55;3.25;;;;;;;;;;10289108;28;20083;-68
2023/04/03 10:43:09;;;;;;;3.28;3.00;;;;;;;;;;10291115;28;20060;-68
2023/04/03 10:48:12;;;;;;;3.70;3.08;;;;;;;;;;10292216;28;20056;-69
2023/04/03 10:53:20;;;;;;;5.50;2.80;;;;;;;;;;10288960;28;20068;-68
2023/04/03 10:58:21;;;;;;;4.45;4.05;;;;;;;;;;10284954;28;20068;-68
2023/04/03 11:03:25;;;;;;;3.55;3.20;;;;;;;;;;10285322;28;20063;-68
2023/04/03 11:08:27;;;;;;;6.20;2.60;;;;;;;;;;10286220;28;20503;-69
2023/04/03 11:13:29;;;;;;;7.93;3.30;;;;;;;;;;10285242;28;20055;-68
2023/04/03 11:18:32;;;;;;;6.40;3.28;;;;;;;;;;10287997;28;20061;-68
2023/04/03 11:23:34;;;;;;;3.97;3.58;;;;;;;;;;10286046;28;20072;-67
2023/04/03 11:28:47;;;;;;;4.60;2.90;;;;;;;;;;10288825;28;20069;-68
2023/04/03 11:33:50;;;;;;;4.75;3.45;;;;;;;;;;10291860;28;20068;-67
2023/04/03 11:38:50;;;;;;;5.05;2.83;;;;;;;;;;10287900;28;20087;-68
2023/04/03 11:43:57;;;;;;;4.55;3.72;;;;;;;;;;10291779;28;20037;-67
2023/04/03 11:48:56;;;;;;;3.38;2.65;;;;;;;;;;10285575;28;20061;-69
2023/04/03 11:54:18;;;;;;;3.92;3.40;;;;;;;;;;10288528;28;20061;-67
2023/04/03 11:59:41;;;;;;;4.80;3.63;;;;;;;;;;10286399;28;20087;-67
2023/04/03 12:05:05;;;;;;;5.32;3.45;;;;;;;;;;10289157;28;20494;-68
2023/04/03 12:10:18;;;;;;;4.35;2.80;;;;;;;;;;10285629;28;20080;-68
2023/04/03 12:15:49;;;;;;;3.50;2.80;;;;;;;;;;10284002;28;20087;-68
2023/04/03 12:20:58;;;;;;;9.00;2.70;;;;;;;;;;10269501;28;20091;-67
2023/04/03 12:26:05;;;;;;;3.60;2.33;;;;;;;;;;10286623;28;20087;-67
2023/04/03 12:31:10;;;;;;;2.33;1.90;;;;;;;;;;10281008;28;20467;-67
2023/04/03 12:36:14;;;;;;;12.30;2.35;;;;;;;;;;10286930;28;20505;-68
2023/04/03 12:41:25;;;;;;;6.10;2.70;;;;;;;;;;10287929;28;20540;-68
2023/04/03 12:46:33;;;;;;;3.22;2.85;;;;;;;;;;10285385;28;20091;-69
2023/04/03 12:51:38;;;;;;;3.67;2.53;;;;;;;;;;10288350;28;20080;-69
2023/04/03 12:56:41;;;;;;;;;;;;;;;;;;10290231;28;20525;-69
2023/04/03 13:01:55;;;;;;;6.97;3.20;;;;;;;;;;10284970;28;20752;-68
2023/04/03 13:07:02;;;;;;;3.42;3.13;;;;;;;;;;10289150;28;20076;-68
2023/04/03 13:12:14;;;;;;;8.38;4.70;;;;;;;;;;10287155;28;20087;-68
2023/04/03 13:17:18;;;;;;;11.15;7.10;;;;;;;;;;10286752;28;20466;-68
2023/04/03 13:22:27;;;;;;;15.23;11.57;;;;;;;;;;10286329;28;20087;-68
2023/04/03 13:27:31;;;;;;;14.57;13.07;;;;;;;;;;10292734;28;20072;-68
2023/04/03 13:32:31;;;;;;;11.23;10.07;;;;;;;;;;10295195;28;20068;-67
2023/04/03 13:37:32;;;;;;;4.28;3.65;;;;;;;;;;10291582;28;20076;-67
2023/04/03 13:42:32;;;;;;;13.40;10.27;;;;;;;;;;10291125;28;20080;-67
2023/04/03 13:47:38;;;;;;;6.80;4.75;;;;;;;;;;10292311;28;20068;-67
2023/04/03 13:52:42;;;;;;;9.05;5.97;;;;;;;;;;10291999;28;20077;-67
2023/04/03 13:57:49;;;;;;;13.10;7.90;;;;;;;;;;10294470;28;20076;-68
2023/04/03 14:02:48;;;;;;;7.55;6.57;;;;;;;;;;10289388;28;20505;-68
2023/04/03 14:07:47;;;;;;;9.57;6.95;;;;;;;;;;10288241;28;20076;-68
2023/04/03 14:12:46;;;;;;;9.20;5.57;;;;;;;;;;10292082;28;20068;-68
2023/04/03 14:17:44;;;;;;;25.75;15.88;;;;;;;;;;10291759;28;20068;-68
2023/04/03 14:22:43;;;;;;;13.70;8.60;;;;;;;;;;10292126;28;20674;-68
2023/04/03 14:27:44;;;;;;;9.48;6.60;;;;;;;;;;10289851;28;20061;-68
2023/04/03 14:32:42;;;;;;;11.43;9.77;;;;;;;;;;10292731;28;20075;-68
2023/04/03 14:37:41;;;;;;;10.38;8.20;;;;;;;;;;10288385;28;20083;-69
2023/04/03 14:42:39;;;;;;;9.95;7.50;;;;;;;;;;10291728;28;20072;-67
2023/04/03 14:47:41;;;;;;;7.50;6.57;;;;;;;;;;10288505;28;20073;-69
2023/04/03 14:52:39;;;;;;;8.98;8.15;;;;;;;;;;10288900;28;20068;-68
2023/04/03 14:57:39;;;;;;;12.88;10.63;;;;;;;;;;10282965;28;20080;-69
2023/04/03 15:02:39;;;;;;;25.15;16.48;;;;;;;;;;10293024;28;20080;-68
2023/04/03 15:07:38;;;;;;;21.00;14.05;;;;;;;;;;10288480;28;20495;-68
2023/04/03 15:12:36;;;;;;;16.92;13.10;;;;;;;;;;10289238;28;20063;-69
2023/04/03 15:17:35;;;;;;;20.38;13.20;;;;;;;;;;10285418;28;20084;-70
2023/04/03 15:22:35;;;;;;;17.45;9.43;;;;;;;;;;10286971;28;20060;-69
2023/04/03 15:27:33;;;;;;;12.98;8.43;;;;;;;;;;10295638;28;20494;-68
2023/04/03 15:32:31;;;;;;;9.65;7.78;;;;;;;;;;10287414;28;20064;-68
2023/04/03 15:37:29;;;;;;;9.75;7.72;;;;;;;;;;10290315;28;20080;-69
2023/04/03 15:42:29;;;;;;;11.35;7.65;;;;;;;;;;10288832;28;20080;-70
2023/04/03 15:47:27;;;;;;;10.93;8.73;;;;;;;;;;10293548;28;20073;-69
2023/04/03 15:52:26;;;;;;;10.40;8.35;;;;;;;;;;10287778;28;20057;-69
2023/04/03 15:57:26;;;;;;;8.52;7.68;;;;;;;;;;10291027;28;20075;-68
2023/04/03 16:02:27;;;;;;;13.88;9.30;;;;;;;;;;10287394;28;20069;-68
2023/04/03 16:07:25;;;;;;;13.57;9.73;;;;;;;;;;10284680;28;20090;-69
2023/04/03 16:12:24;;;;;;;8.40;7.60;;;;;;;;;;10287300;28;20044;-68
2023/04/03 16:17:23;;;;;;;10.27;9.15;;;;;;;;;;10284556;28;20081;-68
2023/04/03 16:22:24;;;;;;;13.88;8.55;;;;;;;;;;10291157;28;20494;-68
2023/04/03 16:27:27;;;;;;;29.42;19.70;;;;;;;;;;10288411;28;20079;-68
2023/04/03 16:32:29;;;;;;;15.35;11.90;;;;;;;;;;10284763;28;20067;-68
2023/04/03 16:37:29;;;;;;;11.60;9.98;;;;;;;;;;10287474;28;20115;-68
2023/04/03 16:42:29;;;;;;;31.95;19.95;;;;;;;;;;10290652;28;20087;-69
2023/04/03 16:47:28;;;;;;;15.38;11.10;;;;;;;;;;10284052;28;20069;-68
2023/04/03 16:52:26;;;;;;;19.55;15.02;;;;;;;;;;10286826;28;20060;-68
2023/04/03 16:57:27;;;;;;;39.85;30.98;;;;;;;;;;10286145;28;20063;-68
2023/04/03 17:02:29;;;;;;;17.63;15.73;;;;;;;;;;10292596;28;20071;-69
2023/04/03 17:07:27;;;;;;;13.00;10.25;;;;;;;;;;10298278;28;20068;-68
2023/04/03 17:12:26;;;;;;;15.70;12.68;;;;;;;;;;10293673;28;20076;-68
2023/04/03 17:17:25;;;;;;;13.77;12.25;;;;;;;;;;10295756;28;20087;-68
2023/04/03 17:22:24;;;;;;;11.98;9.65;;;;;;;;;;10289065;28;20429;-69
2023/04/03 17:27:22;;;;;;;8.32;7.05;;;;;;;;;;10294239;28;20064;-69
2023/04/03 17:32:21;;;;;;;13.32;11.77;;;;;;;;;;10288954;28;20072;-68
2023/04/03 17:37:20;;;;;;;7.45;6.85;;;;;;;;;;10291793;28;20490;-68
2023/04/03 17:42:18;;;;;;;7.13;6.43;;;;;;;;;;10295524;28;20079;-68
2023/04/03 17:47:16;;;;;;;8.23;7.43;;;;;;;;;;10291465;28;21344;-68
2023/04/03 17:52:16;;;;;;;6.80;6.20;;;;;;;;;;10288490;28;20067;-67
2023/04/03 17:57:14;;;;;;;5.35;4.85;;;;;;;;;;10288058;28;20064;-69
2023/04/03 18:02:12;;;;;;;4.95;4.53;;;;;;;;;;10293345;28;20094;-68
2023/04/03 18:07:10;;;;;;;7.35;6.50;;;;;;;;;;10293438;28;20108;-68
2023/04/03 18:12:10;;;;;;;7.47;6.88;;;;;;;;;;10282106;28;20073;-68
2023/04/03 18:17:08;;;;;;;8.32;7.47;;;;;;;;;;10290765;28;20634;-68
2023/04/03 18:22:09;;;;;;;7.57;6.95;;;;;;;;;;10281711;28;20506;-68
2023/04/03 18:27:10;;;;;;;8.40;7.60;;;;;;;;;;10293201;28;21015;-68
2023/04/03 18:32:10;;;;;;;10.05;9.02;;;;;;;;;;10293252;28;20071;-68
2023/04/03 18:37:08;;;;;;;9.07;8.18;;;;;;;;;;10285461;28;20068;-68
2023/04/03 18:42:08;;;;;;;9.10;8.20;;;;;;;;;;10292731;28;20091;-68
2023/04/03 18:47:06;;;;;;;8.18;7.35;;;;;;;;;;10288611;28;20083;-68
2023/04/03 18:52:06;;;;;;;6.63;6.03;;;;;;;;;;10283574;28;20071;-68
2023/04/03 18:57:05;;;;;;;7.20;6.50;;;;;;;;;;10286721;28;20072;-67
2023/04/03 19:02:04;;;;;;;6.65;6.05;;;;;;;;;;10288683;28;20068;-66
2023/04/03 19:07:05;;;;;;;6.28;5.68;;;;;;;;;;10287532;28;20095;-67
2023/04/03 19:12:05;;;;;;;5.80;4.65;;;;;;;;;;10289440;28;20068;-68
2023/04/03 19:17:06;;;;;;;5.60;5.10;;;;;;;;;;10287938;28;20073;-67
2023/04/03 19:22:05;;;;;;;6.45;5.85;;;;;;;;;;10285703;28;20080;-67
2023/04/03 19:27:05;;;;;;;7.30;6.57;;;;;;;;;;10287991;28;20069;-68
2023/04/03 19:32:03;;;;;;;7.50;6.70;;;;;;;;;;10289789;28;20074;-68
2023/04/03 19:37:01;;;;;;;7.25;6.55;;;;;;;;;;10289405;28;20442;-68
2023/04/03 19:42:00;;;;;;;13.48;10.88;;;;;;;;;;10287729;28;20080;-68
2023/04/03 19:47:01;;;;;;;15.70;12.30;;;;;;;;;;10287059;28;20076;-68
2023/04/03 19:51:59;;;;;;;12.73;11.13;;;;;;;;;;10288786;28;20068;-67
2023/04/03 19:56:58;;;;;;;14.88;13.30;;;;;;;;;;10289849;28;20079;-67
2023/04/03 20:01:56;;;;;;;15.18;11.90;;;;;;;;;;10286221;28;20092;-67
2023/04/03 20:06:57;;;;;;;16.23;13.15;;;;;;;;;;10283380;28;20077;-67
2023/04/03 20:11:56;;;;;;;16.38;14.45;;;;;;;;;;10282047;28;20068;-68
2023/04/03 20:16:55;;;;;;;14.82;13.02;;;;;;;;;;10285620;28;20455;-67
2023/04/03 20:21:54;;;;;;;12.15;9.27;;;;;;;;;;10279002;28;20076;-67
2023/04/03 20:26:56;;;;;;;12.52;11.23;;;;;;;;;;10289563;28;20036;-67
2023/04/03 20:31:54;;;;;;;16.10;12.90;;;;;;;;;;10283031;28;20045;-67
2023/04/03 20:36:53;;;;;;;9.55;8.65;;;;;;;;;;10290596;28;20099;-67
2023/04/03 20:41:52;;;;;;;14.07;12.35;;;;;;;;;;10295681;28;20087;-67
2023/04/03 20:46:51;;;;;;;10.50;9.50;;;;;;;;;;10295316;28;20086;-67
2023/04/03 20:51:51;;;;;;;11.35;10.15;;;;;;;;;;10295381;28;20075;-67
2023/04/03 20:56:50;;;;;;;11.68;10.02;;;;;;;;;;10287896;28;20064;-67
2023/04/03 21:01:48;;;;;;;12.82;11.45;;;;;;;;;;10293124;28;20080;-67
2023/04/03 21:07:05;;;;;;;14.13;12.18;;;;;;;;;;10291383;28;20127;-67
2023/04/03 21:12:22;;;;;;;13.27;11.90;;;;;;;;;;10297817;28;20095;-66
2023/04/03 21:17:20;;;;;;;13.48;11.15;;;;;;;;;;10295012;28;20064;-67
2023/04/03 21:22:20;;;;;;;13.40;11.38;;;;;;;;;;10293464;28;20088;-67
2023/04/03 21:27:18;;;;;;;14.50;11.20;;;;;;;;;;10293584;28;20084;-67
2023/04/03 21:32:17;;;;;;;12.77;11.35;;;;;;;;;;10296758;28;20065;-65
2023/04/03 21:37:15;;;;;;;15.07;12.60;;;;;;;;;;10296406;28;20071;-65
2023/04/03 21:42:15;;;;;;;12.50;11.20;;;;;;;;;;10296445;28;20084;-66
2023/04/03 21:47:14;;;;;;;14.35;12.85;;;;;;;;;;10294933;28;20075;-66
2023/04/03 21:52:12;;;;;;;16.27;13.52;;;;;;;;;;10293289;28;20057;-68
2023/04/03 21:57:10;;;;;;;14.80;12.90;;;;;;;;;;10293022;28;20068;-66
2023/04/03 22:02:10;;;;;;;14.15;11.80;;;;;;;;;;10296598;28;20079;-66
2023/04/03 22:07:09;;;;;;;10.68;9.70;;;;;;;;;;10291244;28;20068;-67
2023/04/03 22:12:10;;;;;;;4.85;4.35;;;;;;;;;;10294296;28;20098;-67
2023/04/03 22:17:10;;;;;;;4.20;3.80;;;;;;;;;;10294036;28;20079;-66
2023/04/03 22:22:08;;;;;;;4.65;4.25;;;;;;;;;;10291496;28;20069;-67
2023/04/03 22:27:06;;;;;;;3.90;3.60;;;;;;;;;;10293348;28;20074;-66
2023/04/03 22:32:05;;;;;;;4.88;4.47;;;;;;;;;;10293570;28;20075;-66
2023/04/03 22:37:04;;;;;;;3.90;3.60;;;;;;;;;;10292661;28;20075;-66
2023/04/03 22:42:04;;;;;;;4.97;4.57;;;;;;;;;;10292984;28;20085;-67
2023/04/03 22:47:02;;;;;;;4.80;4.40;;;;;;;;;;10290036;28;20067;-66
2023/04/03 22:52:01;;;;;;;5.82;5.32;;;;;;;;;;10293250;28;20045;-66
2023/04/03 22:57:00;;;;;;;6.60;5.30;;;;;;;;;;10289694;28;20075;-67
2023/04/03 23:01:58;;;;;;;5.63;5.13;;;;;;;;;;10291586;28;20075;-67
2023/04/03 23:06:58;;;;;;;5.63;5.13;;;;;;;;;;10292794;28;20088;-67
2023/04/03 23:11:57;;;;;;;6.15;5.55;;;;;;;;;;10292609;28;20079;-67
2023/04/03 23:17:04;;;;;;;4.85;4.43;;;;;;;;;;10287813;28;20083;-67
2023/04/03 23:22:02;;;;;;;5.25;4.32;;;;;;;;;;10289800;28;20072;-67
2023/04/03 23:27:00;;;;;;;6.10;4.75;;;;;;;;;;10288591;28;20071;-67
2023/04/03 23:32:00;;;;;;;5.10;4.60;;;;;;;;;;10289843;28;20541;-68
2023/04/03 23:36:58;;;;;;;4.68;4.28;;;;;;;;;;10290315;28;20517;-67
2023/04/03 23:41:57;;;;;;;4.50;4.10;;;;;;;;;;10288010;28;20080;-67
2023/04/03 23:46:56;;;;;;;6.05;5.28;;;;;;;;;;10287524;28;20086;-67
2023/04/03 23:51:56;;;;;;;5.22;4.72;;;;;;;;;;10285001;28;20076;-67
2023/04/03 23:56:55;;;;;;;5.78;5.28;;;;;;;;;;10288608;28;20083;-67
